createdAt,value
2018-10-09T00:01:42.888Z,101880.87
2018-10-09T00:04:21.707Z,101875.41
2018-10-09T00:07:00.063Z,101884.03
2018-10-09T00:12:33.519Z,101891.92
2018-10-09T00:15:12.122Z,101892.08
2018-10-09T00:17:57.641Z,101896.70
2018-10-09T00:20:43.611Z,101889.55
2018-10-09T00:23:18.038Z,101886.11
2018-10-09T00:25:57.428Z,101890.13
2018-10-09T00:28:42.801Z,101888.49
2018-10-09T00:31:34.341Z,101879.24
2018-10-09T00:34:32.493Z,101885.73
2018-10-09T00:37:10.480Z,101882.16
2018-10-09T00:40:01.858Z,101870.95
2018-10-09T00:42:44.589Z,101867.94
2018-10-09T00:45:37.762Z,101864.94
2018-10-09T00:48:20.948Z,101866.88
2018-10-09T00:50:57.972Z,101860.86
2018-10-09T01:03:51.719Z,101865.80
2018-10-09T01:06:37.959Z,101872.73
2018-10-09T01:21:00.789Z,101889.78
2018-10-09T01:23:53.368Z,101879.44
2018-10-09T01:29:15.908Z,101879.38
2018-10-09T01:35:50.990Z,101870.14
2018-10-09T01:52:14.018Z,101834.27
2018-10-09T01:54:58.658Z,101833.91
2018-10-09T01:57:40.150Z,101817.74
2018-10-09T02:03:53.027Z,101816.48
2018-10-09T02:06:25.382Z,101823.03
2018-10-09T02:09:18.533Z,101825.55
2018-10-09T02:12:02.121Z,101820.44
2018-10-09T02:14:52.052Z,101811.23
2018-10-09T02:20:26.106Z,101807.44
2018-10-09T02:23:10.959Z,101811.88
2018-10-09T02:25:48.839Z,101814.53
2018-10-09T02:34:03.956Z,101805.02
2018-10-09T02:42:26.757Z,101807.72
2018-10-09T02:45:31.372Z,101804.23
2018-10-09T02:48:40.654Z,101813.47
2018-10-09T02:51:30.610Z,101823.97
2018-10-09T02:56:53.044Z,101826.50
2018-10-09T02:59:49.677Z,101832.76
2018-10-09T03:05:18.307Z,101839.14
2018-10-09T03:08:09.457Z,101840.28
2018-10-09T03:10:50.517Z,101834.87
2018-10-09T03:13:31.088Z,101840.11
2018-10-09T03:16:11.960Z,101841.67
2018-10-09T03:18:48.026Z,101829.71
2018-10-09T03:21:35.751Z,101830.36
2018-10-09T03:24:20.510Z,101821.84
2018-10-09T03:30:06.893Z,101829.28
2018-10-09T03:33:02.623Z,101836.31
2018-10-09T04:03:30.739Z,101822.91
2018-10-09T04:09:08.281Z,101817.82
2018-10-09T04:12:01.285Z,101814.55
2018-10-09T04:14:43.899Z,101821.77
2018-10-09T04:17:26.654Z,101814.39
2018-10-09T04:20:02.425Z,101819.48
2018-10-09T04:22:50.001Z,101799.66
2018-10-09T04:25:46.403Z,101799.31
2018-10-09T05:05:13.176Z,101801.95
2018-10-09T05:07:50.278Z,101798.90
2018-10-09T05:10:25.181Z,101796.81
2018-10-09T05:13:14.684Z,101801.64
2018-10-09T05:15:59.615Z,101800.24
2018-10-09T05:18:34.812Z,101796.54
2018-10-09T05:21:22.398Z,101791.73
2018-10-09T05:23:56.012Z,101799.48
2018-10-09T05:26:26.655Z,101795.32
2018-10-09T05:29:22.447Z,101808.66
2018-10-09T05:35:47.982Z,101812.34
2018-10-09T05:38:20.384Z,101815.94
2018-10-09T05:41:03.574Z,101820.88
2018-10-09T05:44:03.797Z,101825.04
2018-10-09T05:52:14.875Z,101826.05
2018-10-09T05:54:56.627Z,101815.73
2018-10-09T06:00:56.164Z,101822.95
2018-10-09T06:03:43.355Z,101824.97
2018-10-09T06:06:30.300Z,101850.79
2018-10-09T06:36:05.260Z,101834.86
2018-10-09T06:57:50.182Z,101844.23
2018-10-09T07:00:28.516Z,101851.33
2018-10-09T07:03:10.414Z,101853.14
2018-10-09T07:26:17.794Z,101864.17
2018-10-09T07:29:01.155Z,101853.48
2018-10-09T07:31:39.395Z,101864.34
2018-10-09T07:34:13.892Z,101863.30
2018-10-09T07:36:46.225Z,101867.48
2018-10-09T07:39:25.420Z,101860.57
2018-10-09T07:42:04.864Z,101859.45
2018-10-09T07:48:12.741Z,101868.60
2018-10-09T07:51:01.614Z,101873.41
2018-10-09T07:53:41.111Z,101868.44
2018-10-09T07:56:21.847Z,101876.73
2018-10-09T07:58:53.538Z,101876.79
2018-10-09T08:01:25.125Z,101873.12
2018-10-09T08:03:55.376Z,101882.05
2018-10-09T08:06:25.407Z,101888.25
2018-10-09T08:08:55.248Z,101885.92
2018-10-09T08:11:26.060Z,101883.11
2018-10-09T08:13:56.491Z,101891.66
2018-10-09T08:16:27.388Z,101894.86
2018-10-09T08:18:58.164Z,101898.97
2018-10-09T08:21:30.895Z,101900.81
2018-10-09T08:24:02.647Z,101899.70
2018-10-09T08:26:33.332Z,101900.88
2018-10-09T08:29:03.459Z,101889.42
2018-10-09T08:31:34.209Z,101893.03
2018-10-09T08:34:04.883Z,101890.77
2018-10-09T08:36:35.077Z,101894.28
2018-10-09T08:39:06.292Z,101892.59
2018-10-09T08:41:37.121Z,101886.98
2018-10-09T08:44:07.550Z,101880.06
2018-10-09T08:46:39.288Z,101882.47
2018-10-09T08:49:09.625Z,101885.03
2018-10-09T08:51:41.771Z,101886.24
2018-10-09T08:54:12.740Z,101888.20
2018-10-09T08:56:42.752Z,101888.97
2018-10-09T09:01:53.587Z,101882.70
2018-10-09T09:04:25.026Z,101889.50
2018-10-09T09:06:55.265Z,101885.30
2018-10-09T09:09:25.440Z,101886.92
2018-10-09T09:12:00.975Z,101888.62
2018-10-09T09:14:31.048Z,101891.37
2018-10-09T09:17:01.127Z,101896.61
2018-10-09T09:19:32.464Z,101893.92
2018-10-09T09:22:02.973Z,101892.86
2018-10-09T09:24:33.517Z,101898.52
2018-10-09T09:27:03.498Z,101898.86
2018-10-09T09:29:33.746Z,101898.23
2018-10-09T09:32:03.777Z,101883.69
2018-10-09T09:34:35.037Z,101893.39
2018-10-09T09:37:06.461Z,101895.42
2018-10-09T09:39:37.905Z,101902.77
2018-10-09T09:42:08.318Z,101898.73
2018-10-09T09:44:39.459Z,101903.72
2018-10-09T09:47:09.701Z,101895.75
2018-10-09T09:49:39.827Z,101896.27
2018-10-09T09:52:10.175Z,101906.80
2018-10-09T09:54:40.428Z,101905.38
2018-10-09T09:57:12.658Z,101910.13
2018-10-09T09:59:42.964Z,101915.00
2018-10-09T10:02:12.892Z,101914.69
2018-10-09T10:04:43.123Z,101910.72
2018-10-09T10:07:14.180Z,101907.80
2018-10-09T10:09:45.424Z,101913.20
2018-10-09T10:12:19.807Z,101913.43
2018-10-09T10:14:50.145Z,101905.59
2018-10-09T10:17:20.560Z,101904.83
2018-10-09T10:19:51.724Z,101913.16
2018-10-09T10:22:24.098Z,101904.59
2018-10-09T10:24:54.293Z,101906.12
2018-10-09T10:27:24.716Z,101908.38
2018-10-09T10:29:55.270Z,101906.42
2018-10-09T10:32:25.482Z,101901.02
2018-10-09T10:34:56.800Z,101901.44
2018-10-09T10:37:29.189Z,101909.38
2018-10-09T10:39:59.510Z,101912.78
2018-10-09T10:42:29.944Z,101907.78
2018-10-09T10:45:09.067Z,101907.34
2018-10-09T10:47:40.867Z,101897.89
2018-10-09T10:50:17.531Z,101895.84
2018-10-09T10:52:49.757Z,101901.44
2018-10-09T10:55:20.774Z,101908.06
2018-10-09T10:57:50.810Z,101899.81
2018-10-09T11:00:21.295Z,101900.05
2018-10-09T11:02:54.069Z,101901.73
2018-10-09T11:05:24.448Z,101910.98
2018-10-09T11:07:56.655Z,101909.84
2018-10-09T11:10:27.718Z,101923.03
2018-10-09T11:12:58.082Z,101923.95
2018-10-09T11:15:30.203Z,101927.31
2018-10-09T11:18:01.393Z,101911.64
2018-10-09T11:20:31.743Z,101907.23
2018-10-09T11:23:02.569Z,101905.05
2018-10-09T11:25:35.353Z,101906.41
2018-10-09T11:28:11.669Z,101898.91
2018-10-09T11:30:42.874Z,101898.31
2018-10-09T11:33:14.803Z,101896.14
2018-10-09T11:35:48.643Z,101905.97
2018-10-09T11:38:18.822Z,101889.42
2018-10-09T11:40:49.305Z,101899.67
2018-10-09T11:43:20.203Z,101896.34
2018-10-09T11:45:51.248Z,101894.94
2018-10-09T11:48:23.199Z,101902.27
2018-10-09T11:50:55.160Z,101897.77
2018-10-09T11:53:26.099Z,101890.86
2018-10-09T11:55:56.833Z,101884.70
2018-10-09T11:58:29.533Z,101879.16
2018-10-09T12:01:06.807Z,101883.77
2018-10-09T12:03:37.804Z,101875.16
2018-10-09T12:06:09.078Z,101869.98
2018-10-09T12:08:40.648Z,101864.08
2018-10-09T12:11:13.763Z,101871.78
2018-10-09T12:13:44.932Z,101864.94
2018-10-09T12:16:15.483Z,101861.89
2018-10-09T12:18:45.599Z,101857.94
2018-10-09T12:21:16.312Z,101855.47
2018-10-09T12:23:46.858Z,101864.98
2018-10-09T12:26:17.928Z,101866.11
2018-10-09T12:28:58.744Z,101869.54
2018-10-09T12:31:30.264Z,101878.18
2018-10-09T12:34:01.608Z,101865.66
2018-10-09T12:36:33.309Z,101876.74
2018-10-09T12:39:05.300Z,101866.86
2018-10-09T12:41:35.889Z,101861.00
2018-10-09T12:44:07.227Z,101862.81
2018-10-09T12:46:37.940Z,101853.48
2018-10-09T12:49:07.752Z,101856.41
2018-10-09T12:51:38.857Z,101855.92
2018-10-09T12:54:09.488Z,101860.65
2018-10-09T12:56:39.965Z,101851.27
2018-10-09T12:59:10.292Z,101853.48
2018-10-09T13:01:40.981Z,101853.80
2018-10-09T13:04:11.564Z,101841.13
2018-10-09T13:06:41.366Z,101851.54
2018-10-09T13:09:14.033Z,101841.92
2018-10-09T13:11:44.587Z,101839.92
2018-10-09T13:14:14.337Z,101859.93
2018-10-09T13:16:45.414Z,101852.44
2018-10-09T13:19:15.088Z,101861.65
2018-10-09T13:21:45.622Z,101862.23
2018-10-09T13:24:17.613Z,101857.94
2018-10-09T13:26:47.913Z,101855.01
2018-10-09T13:29:19.519Z,101857.63
2018-10-09T13:31:50.917Z,101850.01
2018-10-09T13:34:23.622Z,101863.13
2018-10-09T13:36:54.685Z,101874.13
2018-10-09T13:39:32.382Z,101868.16
2018-10-09T13:42:05.160Z,101872.69
2018-10-09T13:44:35.565Z,101871.19
2018-10-09T13:47:07.922Z,101881.86
2018-10-09T13:49:39.198Z,101877.55
2018-10-09T13:52:13.457Z,101880.10
2018-10-09T13:54:43.819Z,101878.34
2018-10-09T13:57:15.294Z,101874.69
2018-10-09T13:59:45.685Z,101870.06
2018-10-09T14:02:17.887Z,101866.89
2018-10-09T14:04:49.650Z,101869.72
2018-10-09T14:07:19.959Z,101871.02
2018-10-09T14:09:50.082Z,101862.72
2018-10-09T14:12:38.645Z,101866.48
2018-10-09T14:15:11.282Z,101863.06
2018-10-09T14:17:46.238Z,101866.55
2018-10-09T14:20:17.878Z,101862.34
2018-10-09T14:22:56.076Z,101856.39
2018-10-09T14:25:27.977Z,101854.06
2018-10-09T14:27:58.567Z,101854.41
2018-10-09T14:30:29.830Z,101847.03
2018-10-09T14:33:00.508Z,101858.03
2018-10-09T14:35:33.035Z,101851.49
2018-10-09T14:38:04.826Z,101848.16
2018-10-09T14:40:41.387Z,101842.16
2018-10-09T14:43:14.012Z,101845.72
2018-10-09T14:45:45.698Z,101838.50
2018-10-09T14:48:17.547Z,101837.52
2018-10-09T14:50:50.368Z,101843.91
2018-10-09T14:53:20.999Z,101836.48
2018-10-09T14:55:56.561Z,101838.32
2018-10-09T14:58:28.770Z,101838.05
2018-10-09T15:01:00.613Z,101844.36
2018-10-09T15:03:32.634Z,101839.63
2018-10-09T15:06:08.679Z,101844.59
2018-10-09T15:08:44.675Z,101840.92
2018-10-09T15:11:15.297Z,101842.52
2018-10-09T15:13:56.167Z,101846.27
2018-10-09T15:16:34.589Z,101848.97
2018-10-09T15:19:06.234Z,101852.58
2018-10-09T15:21:39.051Z,101857.99
2018-10-09T15:24:10.459Z,101854.42
2018-10-09T15:29:19.822Z,101848.06
2018-10-09T15:31:51.600Z,101851.49
2018-10-09T15:34:22.240Z,101861.11
2018-10-09T15:55:30.970Z,101864.08
2018-10-09T16:29:34.201Z,101868.22
2018-10-09T16:32:10.976Z,101870.22
2018-10-09T16:34:49.635Z,101875.76
2018-10-09T16:37:28.708Z,101874.73
2018-10-09T16:40:03.645Z,101877.20
2018-10-09T16:42:35.693Z,101882.28
2018-10-09T16:45:09.874Z,101887.44
2018-10-09T16:51:17.934Z,101884.17
2018-10-09T16:53:55.303Z,101886.55
2018-10-09T16:56:29.213Z,101891.63
2018-10-09T16:59:07.238Z,101895.92
2018-10-09T17:01:58.643Z,101892.40
2018-10-09T17:04:30.696Z,101893.09
2018-10-09T17:07:08.445Z,101900.09
2018-10-09T17:09:44.623Z,101901.64
2018-10-09T17:12:16.777Z,101900.70
2018-10-09T17:14:48.934Z,101902.29
2018-10-09T17:17:19.774Z,101901.70
2018-10-09T17:19:50.709Z,101901.70
2018-10-09T17:22:23.302Z,101905.02
2018-10-09T17:24:54.904Z,101909.89
2018-10-09T17:27:25.757Z,101908.00
2018-10-09T17:29:57.719Z,101911.87
2018-10-09T17:32:30.151Z,101913.11
2018-10-09T17:35:09.560Z,101914.13
2018-10-09T17:37:41.418Z,101914.81
2018-10-09T17:40:12.408Z,101916.69
2018-10-09T17:42:49.395Z,101913.20
2018-10-09T17:45:24.752Z,101915.20
2018-10-09T17:54:25.965Z,101930.20
2018-10-09T18:27:54.184Z,101942.95
2018-10-09T18:30:26.700Z,101943.06
2018-10-09T18:35:50.910Z,101948.75
2018-10-09T18:38:23.415Z,101949.20
2018-10-09T18:40:56.460Z,101952.52
2018-10-09T18:43:30.269Z,101957.91
2018-10-09T18:46:04.175Z,101961.55
2018-10-09T18:48:37.693Z,101955.80
2018-10-09T18:51:21.038Z,101953.70
2018-10-09T18:53:54.061Z,101952.74
2018-10-09T18:56:26.501Z,101958.41
2018-10-09T18:58:58.577Z,101960.38
2018-10-09T19:01:35.143Z,101960.48
2018-10-09T19:04:15.514Z,101962.28
2018-10-09T19:06:49.798Z,101967.36
2018-10-09T19:09:22.644Z,101968.84
2018-10-09T19:11:53.388Z,101961.08
2018-10-09T19:14:24.879Z,101962.84
2018-10-09T19:17:02.167Z,101968.70
2018-10-09T19:19:33.515Z,101960.77
2018-10-09T19:22:05.897Z,101960.28
2018-10-09T19:24:38.681Z,101961.56
2018-10-09T19:27:15.263Z,101963.18
2018-10-09T19:29:48.510Z,101961.11
2018-10-09T19:32:22.979Z,101962.56
2018-10-09T19:34:57.087Z,101966.70
2018-10-09T19:37:30.888Z,101973.78
2018-10-09T19:40:06.487Z,101979.84
2018-10-09T19:42:38.423Z,101978.59
2018-10-09T19:45:10.145Z,101976.93
2018-10-09T19:47:45.410Z,101982.25
2018-10-09T19:50:31.585Z,101979.87
2018-10-09T19:56:00.716Z,101984.69
2018-10-09T19:58:36.632Z,101991.19
2018-10-09T20:01:22.399Z,101985.80
2018-10-09T20:03:59.278Z,101983.03
2018-10-09T20:06:36.927Z,101988.58
2018-10-09T20:09:16.638Z,101990.36
2018-10-09T20:11:53.560Z,101990.56
2018-10-09T20:14:28.095Z,101992.98
2018-10-09T20:22:53.503Z,101992.27
2018-10-09T20:25:31.177Z,101995.45
2018-10-09T20:28:05.194Z,101991.27
2018-10-09T20:30:36.655Z,101997.02
2018-10-09T20:33:09.501Z,101997.59
2018-10-09T20:35:41.111Z,101996.45
2018-10-09T20:38:13.449Z,101991.23
2018-10-09T20:43:43.235Z,101989.53
2018-10-09T20:46:18.979Z,101993.19
2018-10-09T20:49:00.572Z,101992.19
2018-10-09T20:54:23.351Z,101997.80
2018-10-09T20:56:56.935Z,101998.92
2018-10-09T20:59:32.970Z,101998.95
2018-10-09T21:02:05.079Z,101999.85
2018-10-09T21:04:37.395Z,101993.54
2018-10-09T21:07:10.397Z,102000.63
2018-10-09T21:09:49.514Z,101998.44
2018-10-09T21:12:32.791Z,101995.75
2018-10-09T21:17:48.192Z,102004.75
2018-10-09T21:20:26.041Z,101998.09
2018-10-09T21:23:02.697Z,102000.08
2018-10-09T21:25:49.531Z,102002.89
2018-10-09T21:28:24.968Z,102006.16
2018-10-09T21:30:56.609Z,101997.80
2018-10-09T21:33:32.874Z,101998.34
2018-10-09T21:36:12.651Z,101992.48
2018-10-09T21:38:52.566Z,101992.96
2018-10-09T21:41:29.261Z,101986.74
2018-10-09T21:44:03.197Z,101988.63
2018-10-09T21:46:59.222Z,102001.09
2018-10-09T21:49:46.418Z,101994.40
2018-10-09T21:52:19.518Z,101995.36
2018-10-09T21:54:52.666Z,101996.13
2018-10-09T21:57:25.086Z,102005.06
2018-10-09T22:00:03.742Z,101999.49
2018-10-09T22:05:48.736Z,101993.17
2018-10-09T22:08:36.215Z,102001.43
2018-10-09T22:11:09.650Z,102003.00
2018-10-09T22:13:43.355Z,102001.43
2018-10-09T22:16:16.952Z,102012.13
2018-10-09T22:18:49.846Z,102007.20
2018-10-09T22:21:23.369Z,102012.47
2018-10-09T22:23:55.837Z,102012.89
2018-10-09T22:26:27.393Z,102020.39
2018-10-09T22:28:59.459Z,102016.06
2018-10-09T22:31:31.356Z,102021.16
2018-10-09T22:34:04.823Z,102025.39
2018-10-09T22:36:37.051Z,102024.63
2018-10-09T22:39:11.681Z,102025.29
2018-10-09T22:41:46.741Z,102020.75
2018-10-09T22:49:33.771Z,102020.14
2018-10-09T22:52:05.867Z,102012.50
2018-10-09T22:54:37.025Z,102018.98
2018-10-09T22:57:08.634Z,102019.25
2018-10-09T22:59:40.078Z,102022.58
2018-10-09T23:02:13.542Z,102016.06
2018-10-09T23:04:44.871Z,102014.47
2018-10-09T23:07:17.026Z,102033.42
2018-10-09T23:09:48.599Z,102037.79
2018-10-09T23:12:20.456Z,102047.69
2018-10-09T23:14:51.689Z,102047.95
2018-10-09T23:17:24.068Z,102051.25
2018-10-09T23:19:54.670Z,102052.18
2018-10-09T23:22:26.862Z,102063.16
2018-10-09T23:24:58.410Z,102061.09
2018-10-09T23:27:29.870Z,102063.22
2018-10-09T23:30:00.749Z,102056.91
2018-10-09T23:32:31.484Z,102051.73
2018-10-09T23:35:02.449Z,102050.14
2018-10-09T23:37:33.468Z,102049.34
2018-10-09T23:40:04.667Z,102051.59
2018-10-09T23:42:36.108Z,102047.55
2018-10-09T23:45:07.783Z,102051.21
2018-10-09T23:47:39.529Z,102055.66
2018-10-09T23:50:10.478Z,102052.69
2018-10-09T23:52:43.668Z,102062.03
2018-10-09T23:55:16.442Z,102054.70
2018-10-09T23:57:49.733Z,102055.30
